Aérodrome :
LOGIN :

S'inscrire | Disclaimer

   EN    FR    IT 

 










Légende :    VFR   VFR Marginal   IFR   IFR Intensif   IFR Très Intensif
Visi : 
Plafond : 
>= 8 km
>= 3000ft
5 à 8 km
1000 à 3000 ft
1500m à 5 km
500 à 1000 ft
800 à 1500m
200 à 500 ft
< 800m
< 200 ft
Symboles :   Orages  Brouillard  Fortes neiges  Fortes précipitations  Vent > 20 kt
SIGMETs :   Divers  Orages  Givrage  Turbulence  Onde Orograph.  Cendres Volcan.






- Altitude de l'aérodrome : 203 ft
- Code IATA : XMJ


LFBM - Mont-De-Marsan

DERNIER METAR :
  • 300330Z AUTO 08003KT CAVOK 13/11 Q1014 NOSIG

METARs EXPIRÉS :
  • 300300Z AUTO 07003KT CAVOK 14/10 Q1014 NOSIG
  • 300230Z AUTO 08002KT CAVOK 14/10 Q1014 NOSIG
  • 300200Z AUTO 08003KT CAVOK 13/10 Q1014 NOSIG
  • 300130Z AUTO 06004KT CAVOK 13/09 Q1014 NOSIG
  • 300100Z AUTO VRB01KT CAVOK 15/10 Q1014 NOSIG
  • 300030Z AUTO 04003KT CAVOK 14/09 Q1014 NOSIG

TAF TAF LFBM
Valide du 30 à 03h jusqu'au 31 à 03h UTC


300200Z 3003/3103 VRB02KT CAVOK



MET'MAP, la Météo Aéronautique d'un coup d'oeil ! - Copyright ORBIFLY Décembre 2007 - Disclaimer

ORBIFLY MET'MAP TEAM :

Programmation & Développement : Alexandra Zaïnal
Sur une idée originale de : Baudouin d'Aumeries
Assistance à la programmation : Marc-Olivier Méhu
Soutien technique & logistique : Manuel Goepfert

Contact : metmap@orbifly.com




SOURCES & CREDITS :

   NOAA